Time;durP1;ratioP1;P1;durP2;ratioP2;P2;SDS_P1;SDS_P2;PMS_P1;PMS_P2;Temp;Humidity;BMP_temperature;BMP_pressure;BME280_temperature;BME280_humidity;BME280_pressure;Samples;Min_cycle;Max_cycle;Signal;HPM_P1;HPM_P2
2020/12/24 00:01:51;;;;;;;5.43;1.88;;;9.40;84.70;;;;;;4990209;28;20143;-76
2020/12/24 00:04:17;;;;;;;2.38;1.83;;;9.40;84.70;;;;;;4990087;28;20102;-76
2020/12/24 00:06:43;;;;;;;5.50;2.25;;;9.40;84.70;;;;;;5007985;28;20051;-76
2020/12/24 00:09:09;;;;;;;2.15;1.73;;;9.40;84.60;;;;;;5007010;28;20029;-76
2020/12/24 00:11:35;;;;;;;2.08;1.48;;;9.40;84.60;;;;;;5007915;28;20026;-76
2020/12/24 00:14:01;;;;;;;3.08;1.55;;;9.40;84.60;;;;;;5006751;28;20540;-76
2020/12/24 00:16:27;;;;;;;5.25;2.00;;;9.40;84.60;;;;;;5006077;28;20073;-76
2020/12/24 00:18:53;;;;;;;4.20;2.10;;;9.40;84.60;;;;;;5007996;28;20044;-76
2020/12/24 00:21:19;;;;;;;3.40;2.03;;;9.40;84.60;;;;;;4990046;28;20044;-76
2020/12/24 00:23:45;;;;;;;2.35;1.95;;;9.40;84.60;;;;;;4989786;28;20399;-76
2020/12/24 00:26:11;;;;;;;2.17;1.98;;;9.40;84.50;;;;;;4989470;28;20051;-76
2020/12/24 00:28:37;;;;;;;2.20;1.77;;;9.40;84.50;;;;;;5006134;28;20276;-76
2020/12/24 00:31:03;;;;;;;5.65;2.00;;;9.40;84.50;;;;;;5006052;28;20430;-77
2020/12/24 00:33:29;;;;;;;2.72;2.10;;;9.40;84.50;;;;;;4989893;28;20033;-76
2020/12/24 00:35:55;;;;;;;12.05;2.47;;;9.40;84.40;;;;;;5005889;28;20490;-76
2020/12/24 00:38:21;;;;;;;3.30;2.50;;;9.40;84.40;;;;;;5006086;28;20072;-76
2020/12/24 00:40:47;;;;;;;3.45;2.33;;;9.40;84.40;;;;;;5007294;28;20500;-76
2020/12/24 00:43:13;;;;;;;4.63;2.10;;;9.40;84.40;;;;;;5007592;28;20057;-76
2020/12/24 00:45:38;;;;;;;3.42;2.38;;;9.40;84.40;;;;;;5007695;28;20062;-76
2020/12/24 00:48:04;;;;;;;3.03;2.13;;;9.40;84.30;;;;;;5006864;28;20542;-76
2020/12/24 00:50:31;;;;;;;6.07;2.67;;;9.40;84.30;;;;;;5005304;28;20046;-76
2020/12/24 00:52:57;;;;;;;3.15;2.63;;;9.40;84.30;;;;;;4988915;28;20366;-76
2020/12/24 00:55:25;;;;;;;5.18;2.50;;;9.40;84.30;;;;;;5005977;28;20029;-77
2020/12/24 00:57:53;;;;;;;4.25;2.58;;;9.40;84.30;;;;;;4989411;28;20481;-76
2020/12/24 01:00:20;;;;;;;4.90;2.80;;;9.40;84.20;;;;;;5004883;28;20330;-77
2020/12/24 01:02:46;;;;;;;2.80;2.60;;;9.40;84.20;;;;;;4988855;28;20040;-76
2020/12/24 01:05:12;;;;;;;9.35;3.10;;;9.40;84.20;;;;;;5006859;28;20112;-76
2020/12/24 01:07:38;;;;;;;3.10;2.63;;;9.40;84.30;;;;;;5007308;28;20040;-75
2020/12/24 01:10:07;;;;;;;5.20;2.90;;;9.40;84.20;;;;;;5006066;28;20030;-76
2020/12/24 01:12:34;;;;;;;2.70;2.50;;;9.40;84.20;;;;;;5006901;28;20029;-77
2020/12/24 01:15:03;;;;;;;6.43;2.70;;;9.40;84.20;;;;;;5006654;28;20513;-76
2020/12/24 01:17:29;;;;;;;3.50;3.10;;;9.30;84.00;;;;;;5005472;28;20030;-76
2020/12/24 01:19:55;;;;;;;3.40;3.10;;;9.40;84.20;;;;;;5006868;28;20045;-76
2020/12/24 01:22:21;;;;;;;4.32;2.97;;;9.30;84.00;;;;;;5005575;28;20061;-76
2020/12/24 01:24:47;;;;;;;4.03;3.65;;;9.30;84.00;;;;;;5006711;28;20146;-76
2020/12/24 01:27:13;;;;;;;8.10;3.42;;;9.30;84.00;;;;;;5006367;28;20034;-77
2020/12/24 01:29:38;;;;;;;5.53;3.70;;;9.30;83.90;;;;;;5006796;28;20022;-77
2020/12/24 01:32:04;;;;;;;4.43;3.28;;;9.30;83.90;;;;;;5006739;28;20033;-77
2020/12/24 01:34:30;;;;;;;3.65;2.97;;;9.30;83.90;;;;;;5006744;28;20524;-76
2020/12/24 01:37:03;;;;;;;10.80;3.35;;;9.30;83.90;;;;;;5005081;28;20038;-76
2020/12/24 01:39:29;;;;;;;3.55;3.08;;;9.30;83.90;;;;;;5006014;28;20034;-77
2020/12/24 01:41:55;;;;;;;4.30;3.15;;;9.30;83.90;;;;;;5006719;28;20583;-76
2020/12/24 01:44:22;;;;;;;3.70;3.30;;;9.30;83.90;;;;;;5006078;28;20026;-77
2020/12/24 01:46:49;;;;;;;3.40;3.10;;;9.30;83.90;;;;;;5006602;28;20084;-76
2020/12/24 01:49:17;;;;;;;3.35;3.05;;;9.30;83.90;;;;;;5006327;28;20054;-76
2020/12/24 01:51:50;;;;;;;3.40;3.03;;;9.30;83.90;;;;;;5006213;28;20136;-76
2020/12/24 01:54:18;;;;;;;5.03;3.10;;;9.30;83.90;;;;;;5005195;28;20072;-76
2020/12/24 01:56:45;;;;;;;3.55;3.25;;;9.30;83.90;;;;;;5004451;28;20376;-75
2020/12/24 01:59:15;;;;;;;4.53;3.22;;;9.20;83.70;;;;;;5006447;28;20100;-76
2020/12/24 02:01:44;;;;;;;3.42;3.13;;;9.30;83.90;;;;;;5006074;28;20049;-76
2020/12/24 02:04:11;;;;;;;3.22;3.00;;;9.20;83.70;;;;;;5008755;28;20038;-75
2020/12/24 02:06:39;;;;;;;4.47;3.17;;;9.20;83.70;;;;;;5008682;28;20030;-76
2020/12/24 02:09:05;;;;;;;4.53;2.70;;;9.20;83.70;;;;;;5009404;28;20030;-76
2020/12/24 02:11:31;;;;;;;5.97;3.17;;;9.20;83.70;;;;;;5010178;28;20036;-76
2020/12/24 02:13:57;;;;;;;5.22;3.50;;;9.20;83.70;;;;;;5009758;28;20378;-76
2020/12/24 02:16:24;;;;;;;4.50;3.63;;;9.20;83.60;;;;;;5009427;28;20369;-75
2020/12/24 02:18:50;;;;;;;4.75;3.30;;;9.20;83.60;;;;;;5009385;28;20038;-77
2020/12/24 02:21:16;;;;;;;5.45;3.42;;;9.20;83.60;;;;;;5009494;28;20038;-75
2020/12/24 02:23:42;;;;;;;3.95;3.20;;;9.20;83.60;;;;;;5009494;28;20025;-76
2020/12/24 02:26:08;;;;;;;3.65;3.33;;;9.20;84.10;;;;;;5009368;28;20033;-76
2020/12/24 02:28:33;;;;;;;5.60;3.30;;;9.30;83.80;;;;;;5009775;28;20037;-77
2020/12/24 02:31:01;;;;;;;6.57;3.50;;;9.20;83.60;;;;;;5008871;28;20026;-75
2020/12/24 02:33:29;;;;;;;6.10;3.70;;;9.20;83.60;;;;;;5008637;28;20048;-76
2020/12/24 02:35:55;;;;;;;7.10;3.25;;;9.20;83.50;;;;;;5007970;28;20030;-75
2020/12/24 02:38:21;;;;;;;4.40;3.47;;;9.20;83.50;;;;;;5008744;28;20021;-76
2020/12/24 02:40:48;;;;;;;3.30;3.00;;;9.20;83.50;;;;;;4990811;28;20136;-76
2020/12/24 02:43:14;;;;;;;3.55;3.25;;;9.20;83.40;;;;;;5007745;28;20432;-76
2020/12/24 02:45:40;;;;;;;3.83;3.40;;;9.20;83.40;;;;;;4988531;28;20034;-75
2020/12/24 02:48:06;;;;;;;3.70;3.38;;;9.30;83.60;;;;;;5007940;28;20034;-75
2020/12/24 02:50:32;;;;;;;3.88;3.22;;;9.20;83.40;;;;;;4990999;28;20030;-75
2020/12/24 02:52:58;;;;;;;3.47;3.10;;;9.20;83.40;;;;;;5008144;28;20547;-75
2020/12/24 02:55:24;;;;;;;5.53;3.75;;;9.20;83.30;;;;;;5007699;28;20058;-75
2020/12/24 02:57:49;;;;;;;3.97;3.58;;;9.30;83.50;;;;;;5007768;28;20038;-75
2020/12/24 03:00:15;;;;;;;5.50;2.95;;;9.30;83.40;;;;;;4991127;28;20378;-74
2020/12/24 03:02:41;;;;;;;3.15;2.95;;;9.30;83.40;;;;;;5007208;28;20076;-75
2020/12/24 03:05:08;;;;;;;3.05;2.85;;;9.30;83.40;;;;;;4992624;28;20027;-75
2020/12/24 03:07:34;;;;;;;4.40;3.17;;;9.30;83.40;;;;;;5007572;28;20057;-74
2020/12/24 03:10:00;;;;;;;4.22;2.88;;;9.30;83.30;;;;;;4992628;28;20100;-74
2020/12/24 03:12:27;;;;;;;3.15;2.83;;;9.30;83.30;;;;;;4992769;28;20053;-74
2020/12/24 03:14:53;;;;;;;3.00;2.60;;;9.20;83.10;;;;;;4991428;28;20095;-74
2020/12/24 03:17:20;;;;;;;5.43;2.17;;;9.30;83.20;;;;;;4992467;28;20034;-75
2020/12/24 03:19:46;;;;;;;4.80;2.55;;;9.20;83.10;;;;;;4991873;28;20071;-74
2020/12/24 03:22:12;;;;;;;3.08;2.75;;;9.30;83.20;;;;;;5007339;28;20133;-74
2020/12/24 03:24:38;;;;;;;2.65;2.35;;;9.30;83.20;;;;;;5007110;28;20125;-76
2020/12/24 03:27:04;;;;;;;2.88;2.58;;;9.20;83.00;;;;;;4992333;28;20034;-75
2020/12/24 03:29:30;;;;;;;3.25;2.92;;;9.30;83.20;;;;;;4992191;28;20052;-75
2020/12/24 03:31:57;;;;;;;3.17;2.38;;;9.20;83.00;;;;;;4992446;28;20046;-75
2020/12/24 03:34:24;;;;;;;3.30;2.60;;;9.30;83.10;;;;;;4992375;28;20026;-75
2020/12/24 03:36:50;;;;;;;3.38;2.22;;;9.20;82.90;;;;;;5006857;28;20076;-76
2020/12/24 03:39:16;;;;;;;3.22;2.15;;;9.20;82.90;;;;;;4991657;28;20049;-76
2020/12/24 03:41:42;;;;;;;3.75;2.42;;;9.30;83.00;;;;;;4991956;28;20038;-75
2020/12/24 03:44:08;;;;;;;2.20;2.00;;;9.20;82.80;;;;;;4992025;28;20423;-75
2020/12/24 03:46:34;;;;;;;2.72;2.13;;;9.30;83.00;;;;;;4991846;28;20153;-76
2020/12/24 03:49:00;;;;;;;6.20;2.92;;;9.20;82.80;;;;;;5006060;28;20163;-75
2020/12/24 03:51:26;;;;;;;4.45;2.35;;;9.20;82.70;;;;;;5006918;28;20144;-74
2020/12/24 03:53:52;;;;;;;3.35;2.20;;;9.20;82.70;;;;;;4991585;28;20125;-76
2020/12/24 03:56:18;;;;;;;2.85;2.47;;;9.20;82.70;;;;;;5006751;28;20037;-76
2020/12/24 03:58:44;;;;;;;4.72;2.30;;;9.20;82.60;;;;;;4990333;28;20034;-75
2020/12/24 04:01:10;;;;;;;4.78;2.60;;;9.20;82.60;;;;;;4991593;28;20050;-75
2020/12/24 04:03:36;;;;;;;2.95;2.50;;;9.20;82.60;;;;;;4991748;28;20158;-74
2020/12/24 04:06:05;;;;;;;5.53;2.25;;;9.20;82.60;;;;;;4991187;28;20030;-75
2020/12/24 04:08:31;;;;;;;3.05;2.30;;;9.20;82.50;;;;;;4991812;28;20030;-76
2020/12/24 04:10:57;;;;;;;3.42;2.00;;;9.20;82.50;;;;;;5006169;28;20026;-75
2020/12/24 04:13:23;;;;;;;2.38;1.85;;;9.20;82.50;;;;;;4991383;28;20038;-76
2020/12/24 04:15:49;;;;;;;6.35;2.35;;;9.20;82.90;;;;;;4991088;28;20165;-76
2020/12/24 04:18:15;;;;;;;4.32;2.30;;;9.20;82.40;;;;;;4991074;28;20053;-76
2020/12/24 04:20:41;;;;;;;4.88;1.80;;;9.20;82.40;;;;;;4990546;28;20490;-76
2020/12/24 04:23:07;;;;;;;4.13;2.50;;;9.10;82.20;;;;;;4991192;28;20053;-76
2020/12/24 04:25:33;;;;;;;5.07;2.42;;;9.10;82.20;;;;;;4991407;28;20118;-75
2020/12/24 04:27:59;;;;;;;8.00;2.47;;;9.10;82.20;;;;;;5005594;28;20109;-75
2020/12/24 04:30:25;;;;;;;4.28;1.73;;;9.10;82.10;;;;;;5006001;28;20069;-75
2020/12/24 04:32:51;;;;;;;1.95;1.77;;;9.10;82.20;;;;;;4991121;28;20124;-75
2020/12/24 04:35:17;;;;;;;2.95;2.33;;;9.00;82.50;;;;;;4990980;28;20509;-75
2020/12/24 04:37:42;;;;;;;3.15;1.70;;;9.00;82.10;;;;;;4990410;28;20042;-76
2020/12/24 04:40:08;;;;;;;2.35;1.80;;;9.00;82.10;;;;;;4990825;28;20046;-74
2020/12/24 04:42:36;;;;;;;5.32;2.20;;;9.00;82.10;;;;;;4990652;28;20124;-75
2020/12/24 04:45:02;;;;;;;2.65;1.90;;;9.00;82.10;;;;;;4990500;28;20087;-75
2020/12/24 04:47:29;;;;;;;3.78;1.92;;;8.90;81.90;;;;;;4991008;28;20086;-77
2020/12/24 04:49:59;;;;;;;9.52;2.78;;;8.90;81.90;;;;;;4989811;28;20355;-76
2020/12/24 04:52:25;;;;;;;3.55;1.65;;;8.80;81.70;;;;;;4990787;28;20042;-75
2020/12/24 04:54:52;;;;;;;4.10;2.20;;;8.80;81.80;;;;;;4990636;28;20542;-75
2020/12/24 04:57:21;;;;;;;4.32;2.08;;;8.80;81.80;;;;;;4990690;28;20034;-76
2020/12/24 04:59:49;;;;;;;3.45;2.35;;;8.70;81.60;;;;;;4990423;28;20704;-75
2020/12/24 05:02:15;;;;;;;5.22;2.15;;;8.70;81.60;;;;;;5005283;28;20058;-76
2020/12/24 05:04:40;;;;;;;4.82;2.08;;;8.70;81.60;;;;;;4988676;28;20100;-75
2020/12/24 05:07:08;;;;;;;9.68;2.47;;;8.70;81.70;;;;;;5005607;28;20459;-76
2020/12/24 05:09:35;;;;;;;3.78;2.67;;;8.60;81.50;;;;;;4990058;28;20026;-76
2020/12/24 05:12:01;;;;;;;6.47;2.40;;;8.60;81.50;;;;;;4988801;28;20110;-76
2020/12/24 05:14:29;;;;;;;4.03;2.40;;;8.60;81.60;;;;;;5005247;28;20034;-76
2020/12/24 05:17:00;;;;;;;4.60;1.83;;;8.60;81.60;;;;;;4989749;28;20045;-76
2020/12/24 05:19:47;;;;;;;5.95;1.98;;;8.50;81.50;;;;;;5004840;28;20026;-76
2020/12/24 05:22:20;;;;;;;5.22;1.90;;;8.50;81.50;;;;;;5004979;28;20042;-76
2020/12/24 05:24:46;;;;;;;4.05;1.90;;;8.50;81.60;;;;;;5004419;28;20037;-76
2020/12/24 05:27:15;;;;;;;4.55;2.05;;;8.40;81.40;;;;;;4989825;28;20513;-77
2020/12/24 05:29:43;;;;;;;8.27;2.10;;;8.40;81.50;;;;;;4989673;28;20114;-76
2020/12/24 05:32:10;;;;;;;3.67;1.90;;;8.40;81.50;;;;;;4989830;28;20583;-77
2020/12/24 05:34:37;;;;;;;7.53;2.47;;;8.40;81.50;;;;;;4990226;28;20034;-78
2020/12/24 05:37:16;;;;;;;2.05;1.85;;;8.30;81.40;;;;;;4993424;28;20660;-78
2020/12/24 05:39:45;;;;;;;6.78;2.65;;;8.30;81.40;;;;;;5012465;28;20474;-77
2020/12/24 05:42:11;;;;;;;2.78;1.73;;;8.30;81.40;;;;;;5013594;28;20038;-76
2020/12/24 05:44:37;;;;;;;3.95;2.03;;;8.20;81.20;;;;;;5013875;28;20063;-75
2020/12/24 05:47:05;;;;;;;5.95;2.25;;;8.20;81.20;;;;;;5012168;28;20113;-77
2020/12/24 05:49:33;;;;;;;7.25;2.33;;;8.20;81.20;;;;;;4989019;28;20050;-78
2020/12/24 05:52:05;;;;;;;3.28;2.20;;;8.20;81.20;;;;;;4990668;28;20101;-76
2020/12/24 05:54:33;;;;;;;5.85;2.13;;;8.10;81.10;;;;;;4990153;28;20034;-76
2020/12/24 05:57:00;;;;;;;6.75;2.03;;;8.10;81.10;;;;;;4973086;28;20065;-75
2020/12/24 05:59:28;;;;;;;5.38;1.83;;;8.10;81.10;;;;;;5006497;28;20045;-76
2020/12/24 06:01:57;;;;;;;4.43;1.42;;;8.10;81.20;;;;;;5002379;28;20205;-75
2020/12/24 06:04:42;;;;;;;6.72;2.38;;;8.00;81.00;;;;;;5000128;28;20516;-75
2020/12/24 06:07:09;;;;;;;4.68;2.00;;;8.00;81.00;;;;;;5009869;28;20127;-75
2020/12/24 06:09:39;;;;;;;4.35;1.48;;;8.00;81.60;;;;;;5008830;28;20026;-76
2020/12/24 06:12:17;;;;;;;3.47;1.90;;;8.00;81.00;;;;;;5008746;28;20046;-80
2020/12/24 06:14:47;;;;;;;5.80;2.03;;;7.90;80.90;;;;;;5008284;28;20022;-77
2020/12/24 06:17:24;;;;;;;5.50;2.33;;;7.90;80.90;;;;;;5009492;28;20191;-76
2020/12/24 06:19:51;;;;;;;3.75;2.65;;;7.90;81.00;;;;;;5008973;28;20026;-75
2020/12/24 06:22:18;;;;;;;12.23;2.38;;;7.90;81.00;;;;;;5007312;28;20049;-76
2020/12/24 06:24:58;;;;;;;4.63;2.30;;;7.90;81.10;;;;;;4991013;28;20034;-75
2020/12/24 06:27:26;;;;;;;4.40;2.53;;;7.90;81.10;;;;;;5007586;28;20041;-76
2020/12/24 06:30:15;;;;;;;6.40;2.65;;;7.90;81.30;;;;;;4989454;28;20160;-74
2020/12/24 06:32:47;;;;;;;4.50;2.30;;;7.90;81.00;;;;;;5007465;28;20445;-74
2020/12/24 06:35:32;;;;;;;9.55;2.03;;;7.90;80.90;;;;;;5024275;28;20508;-76
2020/12/24 06:37:58;;;;;;;5.85;2.33;;;7.90;80.80;;;;;;5007525;28;20088;-75
2020/12/24 06:40:38;;;;;;;7.82;3.30;;;7.90;80.80;;;;;;5007436;28;20488;-75
2020/12/24 06:43:05;;;;;;;2.75;2.05;;;7.80;80.60;;;;;;4991735;28;20034;-75
2020/12/24 06:45:36;;;;;;;4.57;2.22;;;7.80;80.70;;;;;;5006774;28;20042;-77
2020/12/24 06:48:24;;;;;;;6.05;2.05;;;7.80;80.70;;;;;;5008236;28;20022;-74
2020/12/24 06:51:04;;;;;;;9.40;2.45;;;7.70;80.60;;;;;;5006088;28;20572;-74
2020/12/24 06:53:31;;;;;;;4.60;2.00;;;7.70;80.60;;;;;;5008746;28;20030;-74
2020/12/24 06:56:15;;;;;;;3.80;1.77;;;7.70;80.60;;;;;;5006700;28;20046;-75
2020/12/24 06:59:01;;;;;;;4.50;1.63;;;7.70;80.50;;;;;;5008142;28;20216;-76
2020/12/24 07:01:30;;;;;;;5.20;1.83;;;7.60;80.40;;;;;;4988110;28;20046;-75
2020/12/24 07:03:58;;;;;;;3.97;2.20;;;7.60;80.30;;;;;;4995897;28;20184;-75
2020/12/24 07:06:40;;;;;;;7.72;2.28;;;7.60;80.40;;;;;;5003699;28;20131;-74
2020/12/24 07:09:07;;;;;;;3.70;2.22;;;7.60;80.40;;;;;;5000702;28;20505;-74
2020/12/24 07:11:44;;;;;;;5.13;2.45;;;7.50;80.20;;;;;;5007064;28;20037;-75
2020/12/24 07:14:28;;;;;;;3.85;2.22;;;7.50;80.20;;;;;;5006689;28;20044;-76
2020/12/24 07:17:15;;;;;;;;;;;7.40;80.00;;;;;;5006190;28;20069;-73
2020/12/24 07:19:45;;;;;;;4.65;2.00;;;7.40;80.10;;;;;;5007064;28;19936;-74
2020/12/24 07:22:16;;;;;;;3.63;1.88;;;7.40;80.10;;;;;;5007071;28;20042;-75
2020/12/24 07:24:56;;;;;;;7.07;2.40;;;7.30;79.80;;;;;;5006154;28;20030;-76
2020/12/24 07:27:23;;;;;;;4.75;1.90;;;7.30;79.90;;;;;;5007396;28;20030;-75
2020/12/24 07:29:49;;;;;;;7.18;2.08;;;7.20;79.80;;;;;;5006723;28;20041;-75
2020/12/24 07:32:16;;;;;;;6.85;1.98;;;7.20;79.80;;;;;;5006954;28;20103;-75
2020/12/24 07:34:42;;;;;;;8.43;2.03;;;7.20;79.80;;;;;;5006607;28;20084;-76
2020/12/24 07:37:09;;;;;;;1.83;1.65;;;7.20;79.80;;;;;;5006682;28;20477;-75
2020/12/24 07:39:34;;;;;;;3.00;1.73;;;7.10;79.70;;;;;;4989913;28;20037;-75
2020/12/24 07:42:00;;;;;;;5.90;2.03;;;7.10;79.70;;;;;;5007572;28;20072;-75
2020/12/24 07:44:26;;;;;;;4.50;1.77;;;7.10;79.70;;;;;;5006322;28;20906;-74
2020/12/24 07:47:01;;;;;;;3.05;1.48;;;7.00;79.50;;;;;;5006533;28;20185;-74
2020/12/24 07:49:27;;;;;;;7.07;1.60;;;7.00;79.50;;;;;;4989518;28;20513;-73
2020/12/24 07:51:58;;;;;;;4.22;1.85;;;7.00;79.50;;;;;;5021970;28;20072;-74
2020/12/24 07:54:25;;;;;;;3.95;2.05;;;7.00;79.60;;;;;;5006249;28;20058;-74
2020/12/24 07:56:52;;;;;;;4.10;1.80;;;7.00;79.60;;;;;;5006466;28;20041;-74
2020/12/24 07:59:19;;;;;;;1.90;1.60;;;6.90;79.50;;;;;;5007323;28;20355;-73
2020/12/24 08:01:45;;;;;;;3.70;2.40;;;6.90;79.50;;;;;;4989409;28;20041;-74
2020/12/24 08:04:11;;;;;;;4.80;1.90;;;6.90;79.50;;;;;;5006150;28;20041;-74
2020/12/24 08:06:37;;;;;;;4.72;2.20;;;6.90;79.50;;;;;;5005708;28;20079;-74
2020/12/24 08:09:21;;;;;;;2.10;1.40;;;6.90;79.50;;;;;;5005574;28;20030;-73
2020/12/24 08:11:58;;;;;;;5.47;2.25;;;6.80;79.30;;;;;;5007508;28;20052;-74
2020/12/24 08:14:29;;;;;;;3.15;2.10;;;6.80;79.40;;;;;;5005391;28;20436;-74
2020/12/24 08:17:24;;;;;;;3.83;1.70;;;6.80;79.40;;;;;;4989653;28;20109;-78
2020/12/24 08:20:05;;;;;;;3.30;2.20;;;6.80;79.40;;;;;;5003451;28;20049;-76
2020/12/24 08:22:50;;;;;;;4.18;1.55;;;6.80;79.40;;;;;;5007255;28;20038;-77
2020/12/24 08:25:16;;;;;;;3.05;1.63;;;6.80;79.40;;;;;;5005294;28;20025;-77
2020/12/24 08:27:45;;;;;;;2.60;2.15;;;6.90;79.60;;;;;;5005203;28;20053;-76
2020/12/24 08:30:12;;;;;;;4.20;2.25;;;6.90;79.60;;;;;;5006937;28;20374;-74
2020/12/24 08:32:38;;;;;;;3.33;1.98;;;6.80;79.40;;;;;;5005663;28;20116;-75
2020/12/24 08:35:12;;;;;;;2.50;1.85;;;6.80;79.40;;;;;;4988948;28;20044;-74
2020/12/24 08:37:38;;;;;;;3.80;1.58;;;6.90;79.50;;;;;;5005097;28;20517;-74
2020/12/24 08:40:24;;;;;;;1.55;1.40;;;6.90;79.50;;;;;;5006653;28;20030;-75
2020/12/24 08:42:59;;;;;;;7.25;2.03;;;6.90;79.50;;;;;;4989032;28;20107;-75
2020/12/24 08:45:25;;;;;;;2.13;1.42;;;6.90;79.50;;;;;;5005183;28;20034;-76
2020/12/24 08:47:51;;;;;;;4.05;1.50;;;6.90;79.50;;;;;;5002471;28;20057;-75
2020/12/24 08:50:31;;;;;;;4.40;1.67;;;6.90;79.40;;;;;;5003648;28;20077;-74
2020/12/24 08:52:57;;;;;;;5.25;1.63;;;6.90;79.40;;;;;;5003811;28;20026;-75
2020/12/24 08:55:28;;;;;;;4.63;1.67;;;6.90;79.40;;;;;;5021507;28;20393;-74
2020/12/24 08:57:55;;;;;;;6.03;1.63;;;7.00;79.50;;;;;;5004791;28;20057;-74
2020/12/24 09:00:23;;;;;;;1.75;1.38;;;6.90;79.40;;;;;;4988408;28;20034;-74
2020/12/24 09:02:50;;;;;;;7.90;1.75;;;7.00;79.50;;;;;;4984966;28;20105;-74
2020/12/24 09:05:25;;;;;;;4.07;1.80;;;6.90;79.30;;;;;;5001837;28;20032;-74
2020/12/24 09:07:51;;;;;;;5.55;2.08;;;6.90;79.30;;;;;;5003938;28;20158;-74
2020/12/24 09:10:27;;;;;;;2.38;1.60;;;7.00;79.50;;;;;;5005011;28;20388;-75
2020/12/24 09:12:58;;;;;;;1.63;1.20;;;7.00;79.50;;;;;;5001643;28;20041;-74
2020/12/24 09:15:27;;;;;;;1.33;1.23;;;7.00;79.50;;;;;;4994305;28;20026;-74
2020/12/24 09:17:58;;;;;;;7.80;1.80;;;7.00;79.50;;;;;;5021942;28;20036;-75
2020/12/24 09:20:26;;;;;;;3.35;1.45;;;7.00;79.50;;;;;;5004914;28;20033;-75
2020/12/24 09:22:54;;;;;;;4.88;1.17;;;7.10;79.60;;;;;;5022157;28;20148;-74
2020/12/24 09:25:33;;;;;;;4.47;2.25;;;7.10;79.60;;;;;;5005682;28;20030;-75
2020/12/24 09:28:00;;;;;;;4.65;2.00;;;7.20;79.70;;;;;;5006569;28;20088;-75
2020/12/24 09:30:26;;;;;;;3.42;1.80;;;7.20;79.70;;;;;;5006680;28;20026;-76
2020/12/24 09:32:57;;;;;;;4.97;1.88;;;7.20;79.60;;;;;;5008247;28;20042;-77
2020/12/24 09:35:27;;;;;;;3.17;1.40;;;7.20;79.60;;;;;;4993225;28;20434;-76
2020/12/24 09:37:54;;;;;;;3.42;1.60;;;7.30;79.80;;;;;;5009121;28;20524;-77
2020/12/24 09:40:21;;;;;;;2.75;1.98;;;7.30;79.70;;;;;;5009452;28;20108;-77
2020/12/24 09:42:47;;;;;;;6.38;1.92;;;7.30;79.70;;;;;;5008950;28;20065;-77
2020/12/24 09:45:13;;;;;;;2.25;1.50;;;7.40;79.90;;;;;;4994923;28;20033;-75
2020/12/24 09:47:43;;;;;;;2.15;1.55;;;7.40;79.90;;;;;;4992819;28;20169;-75
2020/12/24 09:50:09;;;;;;;3.05;1.25;;;7.50;80.00;;;;;;4989262;28;20061;-74
2020/12/24 09:52:35;;;;;;;1.83;1.20;;;7.50;80.00;;;;;;5005763;28;20034;-75
2020/12/24 09:55:01;;;;;;;1.65;1.45;;;7.50;80.00;;;;;;5021665;28;20099;-75
2020/12/24 09:57:27;;;;;;;6.13;1.80;;;7.60;80.00;;;;;;5021527;28;20137;-75
2020/12/24 09:59:53;;;;;;;2.92;1.60;;;7.60;80.00;;;;;;5005087;28;20041;-74
2020/12/24 10:02:19;;;;;;;1.80;1.13;;;7.70;80.10;;;;;;5006048;28;20404;-74
2020/12/24 10:04:45;;;;;;;3.55;1.80;;;7.70;80.00;;;;;;5006199;28;20373;-74
2020/12/24 10:07:11;;;;;;;1.48;1.30;;;7.70;79.90;;;;;;5005930;28;20042;-75
2020/12/24 10:09:37;;;;;;;1.85;1.38;;;7.80;80.00;;;;;;5005188;28;20041;-73
2020/12/24 10:12:03;;;;;;;2.90;1.40;;;7.80;80.00;;;;;;5003877;28;20095;-75
2020/12/24 10:14:29;;;;;;;2.72;1.70;;;7.80;80.00;;;;;;5005271;28;20034;-74
2020/12/24 10:16:55;;;;;;;3.72;2.03;;;7.80;79.90;;;;;;5004004;28;20030;-75
2020/12/24 10:19:21;;;;;;;4.15;1.50;;;7.90;80.10;;;;;;5005403;28;20248;-74
2020/12/24 10:21:47;;;;;;;1.88;1.25;;;7.90;80.00;;;;;;5004937;28;20517;-74
2020/12/24 10:24:13;;;;;;;2.45;1.65;;;7.90;80.00;;;;;;5006296;28;20038;-74
2020/12/24 10:26:39;;;;;;;3.85;1.58;;;7.90;79.90;;;;;;5008819;28;20036;-74
2020/12/24 10:29:05;;;;;;;3.67;1.85;;;7.90;79.80;;;;;;5009098;28;20038;-74
2020/12/24 10:31:31;;;;;;;3.00;1.67;;;7.90;79.80;;;;;;4990807;28;20038;-75
2020/12/24 10:33:57;;;;;;;3.58;1.60;;;7.90;79.70;;;;;;5007497;28;20121;-76
2020/12/24 10:36:24;;;;;;;1.88;1.42;;;7.90;79.70;;;;;;5007260;28;20061;-75
2020/12/24 10:38:50;;;;;;;1.70;1.20;;;7.80;79.50;;;;;;5007583;28;20030;-77
2020/12/24 10:41:17;;;;;;;3.30;1.60;;;7.90;79.60;;;;;;5008766;28;20485;-74
2020/12/24 10:43:44;;;;;;;4.72;1.60;;;7.80;79.40;;;;;;4991193;28;20022;-74
2020/12/24 10:46:21;;;;;;;5.60;2.05;;;7.80;79.40;;;;;;5007330;28;20034;-74
2020/12/24 10:48:48;;;;;;;2.17;1.60;;;7.80;79.40;;;;;;5008733;28;20054;-74
2020/12/24 10:51:15;;;;;;;2.28;1.23;;;7.80;79.40;;;;;;5007457;28;20045;-74
2020/12/24 10:53:41;;;;;;;2.88;1.88;;;7.80;79.40;;;;;;5008835;28;20509;-77
2020/12/24 10:56:16;;;;;;;2.38;1.17;;;7.90;79.60;;;;;;5007916;28;20034;-75
2020/12/24 10:58:43;;;;;;;3.05;1.55;;;7.90;79.60;;;;;;5008831;28;20080;-75
2020/12/24 11:01:12;;;;;;;4.60;1.58;;;7.90;79.50;;;;;;5008927;28;20033;-73
2020/12/24 11:03:39;;;;;;;4.68;1.52;;;7.90;79.50;;;;;;5007669;28;20030;-74
2020/12/24 11:06:15;;;;;;;4.97;1.50;;;8.00;79.70;;;;;;5008022;28;20045;-74
2020/12/24 11:08:40;;;;;;;3.90;1.63;;;8.10;79.90;;;;;;5007259;28;20030;-75
2020/12/24 11:11:06;;;;;;;6.82;2.10;;;8.10;79.80;;;;;;5007717;28;20117;-75
2020/12/24 11:13:32;;;;;;;5.03;2.25;;;8.20;79.90;;;;;;5007703;28;20040;-76
2020/12/24 11:15:58;;;;;;;6.28;1.73;;;8.30;79.90;;;;;;5008880;28;20492;-76
2020/12/24 11:18:24;;;;;;;6.70;2.13;;;8.40;79.80;;;;;;5008530;28;20386;-77
2020/12/24 11:20:50;;;;;;;8.77;2.65;;;8.40;79.50;;;;;;5008126;28;20195;-78
2020/12/24 11:23:16;;;;;;;6.60;2.13;;;8.40;79.40;;;;;;5008671;28;20040;-76
2020/12/24 11:25:43;;;;;;;5.22;1.88;;;8.50;79.60;;;;;;5006834;28;20034;-75
2020/12/24 11:28:09;;;;;;;3.28;1.70;;;8.60;79.60;;;;;;5006907;28;20034;-74
2020/12/24 11:30:35;;;;;;;2.97;1.48;;;8.60;79.50;;;;;;5000653;28;20116;-76
2020/12/24 11:33:01;;;;;;;4.15;1.98;;;8.60;79.30;;;;;;5002762;28;20113;-75
2020/12/24 11:35:27;;;;;;;3.63;1.67;;;8.70;79.40;;;;;;5003988;28;20026;-76
2020/12/24 11:37:53;;;;;;;3.92;1.92;;;8.70;79.30;;;;;;5006425;28;20117;-76
2020/12/24 11:40:19;;;;;;;3.83;1.98;;;8.70;79.20;;;;;;4990756;28;20184;-76
2020/12/24 11:42:45;;;;;;;2.63;1.63;;;8.70;79.00;;;;;;5007601;28;20276;-76
2020/12/24 11:45:11;;;;;;;3.60;1.95;;;8.70;79.00;;;;;;5006580;28;20072;-77
2020/12/24 11:47:37;;;;;;;5.30;2.05;;;8.70;79.00;;;;;;5007889;28;20388;-77
2020/12/24 11:50:04;;;;;;;4.07;1.85;;;8.80;79.20;;;;;;5006740;28;20117;-78
2020/12/24 11:52:34;;;;;;;2.45;1.50;;;8.90;79.40;;;;;;5007833;28;20177;-77
2020/12/24 11:54:59;;;;;;;9.98;3.80;;;8.90;79.20;;;;;;5023099;28;20076;-78
2020/12/24 11:57:26;;;;;;;4.93;2.30;;;9.00;79.30;;;;;;5008148;28;20030;-78
2020/12/24 11:59:52;;;;;;;5.72;1.88;;;9.00;79.20;;;;;;5005672;28;20056;-76
2020/12/24 12:02:18;;;;;;;6.22;2.58;;;9.10;79.30;;;;;;5008246;28;20497;-77
2020/12/24 12:04:44;;;;;;;4.15;2.60;;;9.10;79.30;;;;;;5007623;28;20029;-76
2020/12/24 12:07:10;;;;;;;5.75;2.40;;;9.10;79.20;;;;;;5006189;28;20128;-76
2020/12/24 12:09:35;;;;;;;7.45;3.00;;;9.10;79.10;;;;;;5005724;28;20521;-76
2020/12/24 12:12:01;;;;;;;5.05;2.40;;;9.20;79.20;;;;;;5007229;28;20068;-76
2020/12/24 12:14:27;;;;;;;4.05;2.60;;;9.20;79.10;;;;;;5005715;28;20109;-77
2020/12/24 12:16:54;;;;;;;4.68;2.67;;;9.20;79.00;;;;;;5005558;28;20065;-77
2020/12/24 12:19:20;;;;;;;6.25;2.83;;;9.10;78.80;;;;;;5007327;28;20029;-78
2020/12/24 12:21:46;;;;;;;4.28;2.42;;;9.10;78.70;;;;;;5004910;28;20040;-77
2020/12/24 12:24:12;;;;;;;3.92;2.38;;;9.10;78.70;;;;;;5006003;28;20033;-77
2020/12/24 12:26:38;;;;;;;4.38;2.10;;;9.10;78.70;;;;;;4998347;28;20026;-77
2020/12/24 12:29:04;;;;;;;6.22;2.63;;;9.10;78.70;;;;;;5000825;28;20026;-76
2020/12/24 12:31:30;;;;;;;5.63;2.10;;;9.10;78.70;;;;;;5007219;28;20030;-76
2020/12/24 12:33:56;;;;;;;4.63;2.03;;;9.00;78.40;;;;;;5007147;28;20099;-76
2020/12/24 12:36:23;;;;;;;5.35;2.45;;;9.00;78.40;;;;;;5005575;28;20034;-76
2020/12/24 12:38:50;;;;;;;8.40;2.80;;;9.00;78.40;;;;;;5006847;28;20025;-76
2020/12/24 12:41:18;;;;;;;2.83;2.15;;;9.00;78.40;;;;;;5006477;28;20034;-76
2020/12/24 12:43:44;;;;;;;3.25;2.40;;;9.00;78.40;;;;;;5007594;28;20397;-80
2020/12/24 12:46:10;;;;;;;5.38;1.70;;;9.00;78.40;;;;;;5006403;28;20022;-77
2020/12/24 12:48:36;;;;;;;8.90;3.75;;;9.00;78.30;;;;;;5006006;28;20438;-76
2020/12/24 12:51:02;;;;;;;6.50;3.45;;;9.00;78.40;;;;;;5006003;28;20104;-76
2020/12/24 12:53:29;;;;;;;6.25;3.42;;;9.00;78.50;;;;;;5006118;28;20171;-76
2020/12/24 12:55:55;;;;;;;8.93;3.42;;;9.00;78.50;;;;;;5006267;28;20056;-77
2020/12/24 12:58:21;;;;;;;7.20;3.50;;;9.00;78.40;;;;;;5005116;28;20120;-76
2020/12/24 13:00:47;;;;;;;10.35;3.20;;;9.00;78.40;;;;;;5006485;28;20049;-75
2020/12/24 13:03:13;;;;;;;6.47;3.75;;;9.00;78.30;;;;;;5006209;28;20064;-76